Time;durP1;ratioP1;P1;durP2;ratioP2;P2;SDS_P1;SDS_P2;PMS_P1;PMS_P2;Temp;Humidity;BMP_temperature;BMP_pressure;BME280_temperature;BME280_humidity;BME280_pressure;Samples;Min_cycle;Max_cycle;Signal;HPM_P1;HPM_P2
2023/05/19 00:01:06;;;;;;;;;;;8.80;99.90;;;;;;5114467;28;20282;-66
2023/05/19 00:03:32;;;;;;;;;;;8.80;99.90;;;;;;5133149;27;19923;-65
2023/05/19 00:06:00;;;;;;;;;;;8.70;99.90;;;;;;5132188;27;20402;-69
2023/05/19 00:08:29;;;;;;;;;;;8.80;99.90;;;;;;5166509;27;19923;-65
2023/05/19 00:10:55;;;;;;;;;;;8.80;99.90;;;;;;5132491;27;19935;-66
2023/05/19 00:13:21;;;;;;;;;;;8.80;99.90;;;;;;5132744;27;19924;-65
2023/05/19 00:15:47;;;;;;;;;;;8.70;99.90;;;;;;5132606;27;20375;-65
2023/05/19 00:18:13;;;;;;;;;;;8.80;99.90;;;;;;5131270;28;19930;-65
2023/05/19 00:20:38;;;;;;;;;;;8.80;99.90;;;;;;5132757;27;19993;-65
2023/05/19 00:23:04;;;;;;;;;;;8.80;99.90;;;;;;5114308;28;20325;-65
2023/05/19 00:25:30;;;;;;;;;;;8.80;99.90;;;;;;5114447;28;19929;-65
2023/05/19 00:27:57;;;;;;;;;;;8.80;99.90;;;;;;5132100;28;19923;-65
2023/05/19 00:30:22;;;;;;;;;;;8.80;99.90;;;;;;5132207;27;19924;-65
2023/05/19 00:32:48;;;;;;;;;;;8.70;99.90;;;;;;5134513;27;19935;-63
2023/05/19 00:35:14;;;;;;;;;;;8.80;99.90;;;;;;5135125;27;19985;-64
2023/05/19 00:37:40;;;;;;;;;;;8.80;99.90;;;;;;5135583;27;19930;-67
2023/05/19 00:40:06;;;;;;;;;;;8.80;99.90;;;;;;5136364;27;20022;-66
2023/05/19 00:42:32;;;;;;;;;;;8.80;99.90;;;;;;5135715;27;19924;-64
2023/05/19 00:44:57;;;;;;;;;;;8.70;99.90;;;;;;5136290;27;19924;-64
2023/05/19 00:47:23;;;;;;;;;;;8.70;99.90;;;;;;5136569;27;19924;-63
2023/05/19 00:49:48;;;;;;;;;;;8.70;99.90;;;;;;5136387;27;19923;-64
2023/05/19 00:52:14;;;;;;;;;;;8.70;99.90;;;;;;5135036;27;19984;-65
2023/05/19 00:54:40;;;;;;;;;;;8.70;99.90;;;;;;5135500;27;19924;-64
2023/05/19 00:57:05;;;;;;;;;;;8.70;99.90;;;;;;5134903;27;20281;-65
2023/05/19 00:59:31;;;;;;;;;;;8.70;99.90;;;;;;5136224;27;19978;-65
2023/05/19 01:01:57;;;;;;;;;;;8.70;99.90;;;;;;5136107;27;19931;-71
2023/05/19 01:04:24;;;;;;;;;;;8.70;99.90;;;;;;5134974;27;20317;-64
2023/05/19 01:06:55;;;;;;;;;;;8.70;99.90;;;;;;5135005;27;20018;-64
2023/05/19 01:09:21;;;;;;;;;;;8.70;99.90;;;;;;5136199;27;19930;-64
2023/05/19 01:11:50;;;;;;;;;;;8.70;99.90;;;;;;5136090;27;20010;-64
2023/05/19 01:14:16;;;;;;;;;;;8.70;99.90;;;;;;5135777;27;19927;-64
2023/05/19 01:16:48;;;;;;;;;;;8.70;99.90;;;;;;5135133;27;19946;-65
2023/05/19 01:19:26;;;;;;;;;;;8.60;99.90;;;;;;5135607;27;20273;-64
2023/05/19 01:22:12;;;;;;;;;;;8.60;99.90;;;;;;5136000;27;19984;-64
2023/05/19 01:24:57;;;;;;;;;;;8.60;99.90;;;;;;5135359;27;19970;-64
2023/05/19 01:27:41;;;;;;;;;;;8.60;99.90;;;;;;5134279;27;19923;-65
2023/05/19 01:30:10;;;;;;;;;;;8.60;99.90;;;;;;5133866;27;19930;-65
2023/05/19 01:32:37;;;;;;;;;;;8.50;99.90;;;;;;5135748;27;19923;-64
2023/05/19 01:35:04;;;;;;;;;;;8.50;99.90;;;;;;5135425;27;19923;-66
2023/05/19 01:37:29;;;;;;;;;;;8.50;99.90;;;;;;5135667;27;20014;-66
2023/05/19 01:39:55;;;;;;;;;;;8.50;99.90;;;;;;5135636;27;19977;-65
2023/05/19 01:42:22;;;;;;;;;;;8.50;99.90;;;;;;5134121;27;20006;-65
2023/05/19 01:44:48;;;;;;;;;;;8.50;99.90;;;;;;5134613;27;19977;-64
2023/05/19 01:47:13;;;;;;;;;;;8.50;99.90;;;;;;5135191;27;19927;-64
2023/05/19 01:49:39;;;;;;;;;;;8.40;99.90;;;;;;5135445;27;19930;-65
2023/05/19 01:52:05;;;;;;;;;;;8.40;99.90;;;;;;5116918;27;19934;-68
2023/05/19 01:54:30;;;;;;;;;;;8.40;99.90;;;;;;5134524;27;19923;-64
2023/05/19 01:57:07;;;;;;;;;;;8.30;99.90;;;;;;5135419;27;20105;-64
2023/05/19 01:59:39;;;;;;;;;;;8.40;99.90;;;;;;5135376;27;19968;-64
2023/05/19 02:02:09;;;;;;;;;;;8.40;99.90;;;;;;5135121;27;20007;-71
2023/05/19 02:04:41;;;;;;;;;;;8.40;99.90;;;;;;5135280;27;19981;-64
2023/05/19 02:07:23;;;;;;;;;;;8.30;99.90;;;;;;5133779;27;19963;-68
2023/05/19 02:09:54;;;;;;;;;;;8.30;99.90;;;;;;5134206;27;19930;-65
2023/05/19 02:12:27;;;;;;;;;;;8.30;99.90;;;;;;5150716;27;19978;-65
2023/05/19 02:15:02;;;;;;;;;;;8.20;99.90;;;;;;5135119;27;19923;-65
2023/05/19 02:17:32;;;;;;;;;;;8.20;99.90;;;;;;5134759;27;19928;-65
2023/05/19 02:19:58;;;;;;;;;;;8.20;99.90;;;;;;5134053;27;19923;-67
2023/05/19 02:22:23;;;;;;;;;;;8.20;99.90;;;;;;5134292;27;20296;-65
2023/05/19 02:24:50;;;;;;;;;;;8.20;99.90;;;;;;5133840;27;19924;-63
2023/05/19 02:27:16;;;;;;;;;;;8.20;99.90;;;;;;5133146;27;19930;-63
2023/05/19 02:29:42;;;;;;;;;;;8.20;99.90;;;;;;5133199;27;19924;-64
2023/05/19 02:32:07;;;;;;;;;;;8.20;99.90;;;;;;5133386;27;19972;-69
2023/05/19 02:34:33;;;;;;;;;;;8.20;99.90;;;;;;5133576;27;19923;-63
2023/05/19 02:36:58;;;;;;;;;;;8.10;99.90;;;;;;5134590;27;19923;-64
2023/05/19 02:39:25;;;;;;;;;;;8.10;99.90;;;;;;5134151;27;20026;-64
2023/05/19 02:41:50;;;;;;;;;;;8.10;99.90;;;;;;5133232;27;19953;-64
2023/05/19 02:44:16;;;;;;;;;;;8.10;99.90;;;;;;5133041;27;19930;-65
2023/05/19 02:46:41;;;;;;;;;;;8.10;99.90;;;;;;5134461;27;19969;-64
2023/05/19 02:49:07;;;;;;;;;;;8.10;99.90;;;;;;5133226;27;19931;-64
2023/05/19 02:51:32;;;;;;;;;;;8.10;99.90;;;;;;5133038;27;20372;-65
2023/05/19 02:53:58;;;;;;;;;;;8.00;99.90;;;;;;5134333;27;19924;-64
2023/05/19 02:56:25;;;;;;;;;;;8.00;99.90;;;;;;5132657;27;19923;-65
2023/05/19 02:58:51;;;;;;;;;;;8.00;99.90;;;;;;5133334;27;19931;-65
2023/05/19 03:01:17;;;;;;;;;;;8.10;99.90;;;;;;5133811;27;19938;-64
2023/05/19 03:03:42;;;;;;;;;;;8.10;99.90;;;;;;5132685;27;19923;-64
2023/05/19 03:06:08;;;;;;;;;;;8.10;99.90;;;;;;5134123;27;19927;-64
2023/05/19 03:08:34;;;;;;;;;;;8.00;99.90;;;;;;5115421;27;19930;-65
2023/05/19 03:11:01;;;;;;;;;;;8.00;99.90;;;;;;5133024;27;19923;-65
2023/05/19 03:13:26;;;;;;;;;;;8.00;99.90;;;;;;5132174;27;19924;-64
2023/05/19 03:15:52;;;;;;;;;;;8.00;99.90;;;;;;5132388;27;19968;-64
2023/05/19 03:18:17;;;;;;;;;;;8.00;99.90;;;;;;5132443;27;19923;-64
2023/05/19 03:20:43;;;;;;;;;;;8.00;99.90;;;;;;5133803;27;19973;-65
2023/05/19 03:23:09;;;;;;;;;;;8.00;99.90;;;;;;5133447;27;20318;-64
2023/05/19 03:25:35;;;;;;;;;;;8.00;99.90;;;;;;5132880;27;20560;-64
2023/05/19 03:28:00;;;;;;;;;;;7.90;99.90;;;;;;5133372;27;20022;-64
2023/05/19 03:30:26;;;;;;;;;;;8.00;99.90;;;;;;5131437;27;19923;-64
2023/05/19 03:32:52;;;;;;;;;;;7.90;99.90;;;;;;5133388;27;19930;-63
2023/05/19 03:35:17;;;;;;;;;;;7.90;99.90;;;;;;5131589;27;19923;-69
2023/05/19 03:37:43;;;;;;;;;;;7.90;99.90;;;;;;5114899;27;19924;-64
2023/05/19 03:40:09;;;;;;;;;;;7.90;99.90;;;;;;5115193;28;19930;-64
2023/05/19 03:42:35;;;;;;;;;;;7.90;99.90;;;;;;5131944;27;19934;-64
2023/05/19 03:45:01;;;;;;;;;;;7.90;99.90;;;;;;5132064;27;20023;-64
2023/05/19 03:47:26;;;;;;;;;;;7.90;99.90;;;;;;5166160;27;19946;-65
2023/05/19 03:49:52;;;;;;;;;;;7.80;99.90;;;;;;5132370;27;20280;-65
2023/05/19 03:52:17;;;;;;;;;;;7.90;99.90;;;;;;5133200;27;19923;-64
2023/05/19 03:54:43;;;;;;;;;;;7.80;99.90;;;;;;5133002;27;19924;-64
2023/05/19 03:57:10;;;;;;;;;;;7.90;99.90;;;;;;5132121;27;19931;-64
2023/05/19 03:59:36;;;;;;;;;;;7.90;99.90;;;;;;5132797;27;20380;-63
2023/05/19 04:02:02;;;;;;;;;;;7.80;99.90;;;;;;5115212;28;19923;-63
2023/05/19 04:04:27;;;;;;;;;;;7.80;99.90;;;;;;5132006;28;19931;-64
2023/05/19 04:06:53;;;;;;;;;;;7.90;99.90;;;;;;5116365;27;20253;-66
2023/05/19 04:09:18;;;;;;;;;;;7.90;99.90;;;;;;5137199;27;20031;-64
2023/05/19 04:11:44;;;;;;;;;;;7.90;99.90;;;;;;5137177;27;20008;-63
2023/05/19 04:14:11;;;;;;;;;;;7.90;99.90;;;;;;5119266;27;19967;-64
2023/05/19 04:16:36;;;;;;;;;;;7.90;99.90;;;;;;5135871;27;19933;-64
2023/05/19 04:19:02;;;;;;;;;;;7.90;99.90;;;;;;5137089;27;20010;-64
2023/05/19 04:21:27;;;;;;;;;;;8.00;99.90;;;;;;5135586;27;19923;-64
2023/05/19 04:23:53;;;;;;;;;;;8.00;99.90;;;;;;5136928;27;19923;-63
2023/05/19 04:26:20;;;;;;;;;;;8.00;99.90;;;;;;5135936;27;19930;-64
2023/05/19 04:28:47;;;;;;;;;;;8.10;99.90;;;;;;5136533;27;19924;-65
2023/05/19 04:31:13;;;;;;;;;;;8.20;99.90;;;;;;5137008;27;19930;-64
2023/05/19 04:33:39;;;;;;;;;;;8.20;99.90;;;;;;5136770;27;19927;-64
2023/05/19 04:36:07;;;;;;;;;;;8.50;99.90;;;;;;5137018;27;19935;-64
2023/05/19 04:38:33;;;;;;;;;;;8.80;99.90;;;;;;5136449;27;19930;-63
2023/05/19 04:41:00;;;;;;;;;;;9.20;99.90;;;;;;5135791;27;19923;-64
2023/05/19 04:43:27;;;;;;;;;;;9.60;99.90;;;;;;5136763;27;20032;-71
2023/05/19 04:45:53;;;;;;;;;;;10.20;99.90;;;;;;5170359;27;19988;-63
2023/05/19 04:48:20;;;;;;;;;;;10.80;99.90;;;;;;5136606;27;20263;-65
2023/05/19 04:50:47;;;;;;;;;;;11.50;99.90;;;;;;5135907;27;20399;-65
2023/05/19 04:53:13;;;;;;;;;;;12.20;99.90;;;;;;5136757;27;20014;-64
2023/05/19 04:55:39;;;;;;;;;;;12.80;99.90;;;;;;5136234;27;20363;-64
2023/05/19 04:58:05;;;;;;;;;;;13.50;99.90;;;;;;5136373;27;19927;-64
2023/05/19 05:00:31;;;;;;;;;;;14.00;99.90;;;;;;5135294;27;20430;-66
2023/05/19 05:02:56;;;;;;;;;;;14.50;99.90;;;;;;5136389;27;19974;-65
2023/05/19 05:05:23;;;;;;;;;;;15.10;99.90;;;;;;5136364;27;19969;-64
2023/05/19 05:07:49;;;;;;;;;;;15.50;99.90;;;;;;5135951;27;19966;-64
2023/05/19 05:10:14;;;;;;;;;;;15.80;99.90;;;;;;5136168;27;20050;-66
2023/05/19 05:12:40;;;;;;;;;;;16.40;99.90;;;;;;5134595;27;19923;-65
2023/05/19 05:15:06;;;;;;;;;;;16.80;99.90;;;;;;5136218;27;20292;-64
2023/05/19 05:17:34;;;;;;;;;;;17.10;99.90;;;;;;5134376;27;19930;-71
2023/05/19 05:20:00;;;;;;;;;;;17.40;99.90;;;;;;5135985;27;19924;-65
2023/05/19 05:22:26;;;;;;;;;;;17.80;99.90;;;;;;5134724;27;20365;-67
2023/05/19 05:24:51;;;;;;;;;;;18.00;99.90;;;;;;5117673;27;19924;-65
2023/05/19 05:27:17;;;;;;;;;;;18.20;99.90;;;;;;5134797;27;20363;-65
2023/05/19 05:29:43;;;;;;;;;;;;;;;;;;5135192;27;20383;-64
2023/05/19 05:32:09;;;;;;;;;;;18.40;99.90;;;;;;5135623;27;20376;-64
2023/05/19 05:34:36;;;;;;;;;;;19.00;99.90;;;;;;5117273;27;20380;-70
2023/05/19 05:37:02;;;;;;;;;;;19.50;99.90;;;;;;5135711;27;19931;-62
2023/05/19 05:39:27;;;;;;;;;;;19.60;99.90;;;;;;5135561;27;19931;-64
2023/05/19 05:41:53;;;;;;;;;;;19.80;99.90;;;;;;5134302;27;19988;-63
2023/05/19 05:44:18;;;;;;;;;;;20.00;99.90;;;;;;5134286;27;20392;-63
2023/05/19 05:46:44;;;;;;;;;;;20.20;99.90;;;;;;5134895;27;19932;-63
2023/05/19 05:49:11;;;;;;;;;;;20.30;99.90;;;;;;5134651;27;19924;-63
2023/05/19 05:51:37;;;;;;;;;;;20.30;99.90;;;;;;5135267;27;19924;-68
2023/05/19 05:54:04;;;;;;;;;;;20.10;99.90;;;;;;5169081;27;20326;-62
2023/05/19 05:56:32;;;;;;;;;;;20.20;99.90;;;;;;5134525;27;20372;-62
2023/05/19 05:58:58;;;;;;;;;;;20.40;99.90;;;;;;5135120;27;19923;-62
2023/05/19 06:01:24;;;;;;;;;;;20.70;99.90;;;;;;5134360;27;19972;-63
2023/05/19 06:03:50;;;;;;;;;;;20.60;99.90;;;;;;5133777;27;19945;-62
2023/05/19 06:06:15;;;;;;;;;;;20.80;99.90;;;;;;5134933;27;19923;-62
2023/05/19 06:08:41;;;;;;;;;;;20.80;99.90;;;;;;5134713;27;19923;-62
2023/05/19 06:11:08;;;;;;;;;;;20.70;99.90;;;;;;5135208;27;19927;-63
2023/05/19 06:13:33;;;;;;;;;;;;;;;;;;5135136;27;20357;-62
2023/05/19 06:15:59;;;;;;;;;;;20.80;99.90;;;;;;5134791;27;19930;-61
2023/05/19 06:18:25;;;;;;;;;;;21.30;99.90;;;;;;5116609;27;19927;-62
2023/05/19 06:20:50;;;;;;;;;;;21.60;99.90;;;;;;5134411;27;19949;-61
2023/05/19 06:23:16;;;;;;;;;;;21.60;99.90;;;;;;5134888;27;19931;-62
2023/05/19 06:25:41;;;;;;;;;;;21.50;99.90;;;;;;5134626;27;19937;-63
2023/05/19 06:28:07;;;;;;;;;;;21.50;99.80;;;;;;5134412;27;20322;-63
2023/05/19 06:30:33;;;;;;;;;;;;;;;;;;5133710;27;19927;-63
2023/05/19 06:32:59;;;;;;;;;;;;;;;;;;5133023;27;19924;-63
2023/05/19 06:35:25;;;;;;;;;;;;;;;;;;5134659;27;19931;-62
2023/05/19 06:37:51;;;;;;;;;;;;;;;;;;5134142;27;19931;-63
2023/05/19 06:40:17;;;;;;;;;;;;;;;;;;5134633;27;19989;-63
2023/05/19 06:42:43;;;;;;;;;;;;;;;;;;5133955;27;19927;-68
2023/05/19 06:45:09;;;;;;;;;;;;;;;;;;5134475;27;20276;-63
2023/05/19 06:47:35;;;;;;;;;;;;;;;;;;5134419;27;20025;-63
2023/05/19 06:50:01;;;;;;;;;;;;;;;;;;5134022;27;19923;-62
2023/05/19 06:52:27;;;;;;;;;;;;;;;;;;5167694;27;20026;-63
2023/05/19 06:54:53;;;;;;;;;;;;;;;;;;5133885;27;20020;-63
2023/05/19 06:57:19;;;;;;;;;;;;;;;;;;5150180;27;19924;-64
2023/05/19 06:59:45;;;;;;;;;;;;;;;;;;5132526;27;19927;-68
2023/05/19 07:02:11;;;;;;;;;;;;;;;;;;5133971;27;19976;-64
2023/05/19 07:04:38;;;;;;;;;;;;;;;;;;5150419;27;19930;-63
2023/05/19 07:07:04;;;;;;;;;;;;;;;;;;5133784;27;20110;-64
2023/05/19 07:09:30;;;;;;;;;;;;;;;;;;5134131;27;19959;-64
2023/05/19 07:11:56;;;;;;;;;;;;;;;;;;5133332;27;19924;-63
2023/05/19 07:14:22;;;;;;;;;;;;;;;;;;5133509;27;19927;-62
2023/05/19 07:16:48;;;;;;;;;;;;;;;;;;5133443;27;19923;-67
2023/05/19 07:19:14;;;;;;;;;;;;;;;;;;5134118;27;20069;-63
2023/05/19 07:21:41;;;;;;;;;;;;;;;;;;5133666;27;19923;-63
2023/05/19 07:24:07;;;;;;;;;;;;;;;;;;5133409;27;20159;-66
2023/05/19 07:26:32;;;;;;;;;;;21.80;99.90;;;;;;5167150;27;20368;-63
2023/05/19 07:28:58;;;;;;;;;;;24.90;91.70;;;;;;5133387;27;20292;-63
2023/05/19 07:31:24;;;;;;;;;;;25.00;90.20;;;;;;5132566;27;19924;-62
2023/05/19 07:33:50;;;;;;;;;;;25.40;90.20;;;;;;5133029;27;19970;-67
2023/05/19 07:36:15;;;;;;;;;;;25.40;90.20;;;;;;5133553;27;20028;-63
2023/05/19 07:38:41;;;;;;;;;;;25.80;89.00;;;;;;5133532;27;20320;-64
2023/05/19 07:41:07;;;;;;;;;;;26.10;86.10;;;;;;5131361;27;19939;-63
2023/05/19 07:43:32;;;;;;;;;;;26.30;88.60;;;;;;5115079;27;20288;-63
2023/05/19 07:45:58;;;;;;;;;;;26.00;87.30;;;;;;5131924;27;19963;-64
2023/05/19 07:48:24;;;;;;;;;;;25.50;83.70;;;;;;5115141;27;19923;-65
2023/05/19 07:50:51;;;;;;;;;;;25.70;87.10;;;;;;5132374;27;19923;-68
2023/05/19 07:53:17;;;;;;;;;;;26.10;84.80;;;;;;5133447;27;19931;-63
2023/05/19 07:55:43;;;;;;;;;;;26.50;85.10;;;;;;5133347;27;19928;-63
2023/05/19 07:58:08;;;;;;;;;;;26.70;86.40;;;;;;5125992;27;20010;-65
2023/05/19 08:00:34;;;;;;;;;;;26.70;84.30;;;;;;5130026;27;19962;-63
2023/05/19 08:03:00;;;;;;;;;;;26.90;84.80;;;;;;5132547;28;20015;-64
2023/05/19 08:05:26;;;;;;;;;;;26.80;81.50;;;;;;5114972;28;19924;-64
2023/05/19 08:07:52;;;;;;;;;;;27.00;83.30;;;;;;5131171;28;19931;-67
2023/05/19 08:10:17;;;;;;;;;;;26.80;80.00;;;;;;5131592;28;20074;-64
2023/05/19 08:12:43;;;;;;;;;;;26.70;79.90;;;;;;5133147;28;19923;-64
2023/05/19 08:15:10;;;;;;;;;;;26.70;80.50;;;;;;5132619;27;19927;-63
2023/05/19 08:17:36;;;;;;;;;;;26.70;81.20;;;;;;5132850;27;19924;-64
2023/05/19 08:20:04;;;;;;;;;;;26.80;81.30;;;;;;5131656;28;19938;-63
2023/05/19 08:22:29;;;;;;;;;;;26.80;77.90;;;;;;5115216;28;19932;-66
2023/05/19 08:24:55;;;;;;;;;;;26.80;80.90;;;;;;5131937;28;19927;-69
2023/05/19 08:27:21;;;;;;;;;;;27.00;79.20;;;;;;5113141;28;19930;-63
2023/05/19 08:29:47;;;;;;;;;;;27.10;79.60;;;;;;5131682;28;20353;-64
2023/05/19 08:32:12;;;;;;;;;;;27.10;78.00;;;;;;5132643;27;19966;-62
2023/05/19 08:34:38;;;;;;;;;;;27.10;79.60;;;;;;5132973;28;19924;-65
2023/05/19 08:37:04;;;;;;;;;;;26.70;77.70;;;;;;5131780;28;20340;-64
2023/05/19 08:39:31;;;;;;;;;;;26.70;77.10;;;;;;5114733;28;19943;-64
2023/05/19 08:41:57;;;;;;;;;;;26.60;76.40;;;;;;5132642;27;19930;-69
2023/05/19 08:44:23;;;;;;;;;;;26.90;79.30;;;;;;5131572;28;19923;-64
2023/05/19 08:46:51;;;;;;;;;;;26.90;75.90;;;;;;5132246;28;20380;-63
2023/05/19 08:49:21;;;;;;;;;;;26.80;75.90;;;;;;5131564;27;19923;-64
2023/05/19 08:52:00;;;;;;;;;;;26.50;77.00;;;;;;5131807;28;20288;-63
2023/05/19 08:54:29;;;;;;;;;;;26.40;75.80;;;;;;5136199;27;19923;-64
2023/05/19 08:56:55;;;;;;;;;;;26.30;78.20;;;;;;5136037;27;19927;-63
2023/05/19 08:59:20;;;;;;;;;;;26.30;78.40;;;;;;5134199;27;19919;-65
2023/05/19 09:01:47;;;;;;;;;;;26.30;75.70;;;;;;5135738;27;19923;-64
2023/05/19 09:04:14;;;;;;;;;;;26.20;77.10;;;;;;5135701;27;20442;-64
2023/05/19 09:06:41;;;;;;;;;;;26.10;76.50;;;;;;5132296;27;19930;-63
2023/05/19 09:09:07;;;;;;;;;;;25.90;77.30;;;;;;5135790;27;20018;-64
2023/05/19 09:11:34;;;;;;;;;;;25.60;76.20;;;;;;5135830;27;19924;-64
2023/05/19 09:14:00;;;;;;;;;;;25.60;76.80;;;;;;5134934;27;19924;-68
2023/05/19 09:16:25;;;;;;;;;;;25.50;76.40;;;;;;5135682;27;19924;-62
2023/05/19 09:18:55;;;;;;;;;;;25.00;77.20;;;;;;5136001;27;20280;-63
2023/05/19 09:21:26;;;;;;;;;;;24.90;77.50;;;;;;5135136;27;20565;-63
2023/05/19 09:23:54;;;;;;;;;;;25.20;77.50;;;;;;5134693;27;19923;-64
2023/05/19 09:26:22;;;;;;;;;;;25.40;78.10;;;;;;5133714;27;19930;-63
2023/05/19 09:28:47;;;;;;;;;;;25.50;77.90;;;;;;5134466;27;19923;-62
2023/05/19 09:31:13;;;;;;;;;;;25.20;76.10;;;;;;5135596;27;19930;-63
2023/05/19 09:33:41;;;;;;;;;;;25.20;75.20;;;;;;5132765;27;19930;-64
2023/05/19 09:36:12;;;;;;;;;;;24.70;75.30;;;;;;5133534;27;20430;-64
2023/05/19 09:38:38;;;;;;;;;;;24.60;75.90;;;;;;5135659;27;19931;-64
2023/05/19 09:41:05;;;;;;;;;;;24.60;76.90;;;;;;5132489;27;19931;-68
2023/05/19 09:43:32;;;;;;;;;;;24.90;76.30;;;;;;5135279;27;19923;-63
2023/05/19 09:45:59;;;;;;;;;;;25.00;75.80;;;;;;5135415;27;20036;-64
2023/05/19 09:48:25;;;;;;;;;;;24.70;76.20;;;;;;5134652;27;19923;-64
2023/05/19 09:50:51;;;;;;;;;;;24.30;75.60;;;;;;5135334;27;19947;-64
2023/05/19 09:53:17;;;;;;;;;;;23.70;75.30;;;;;;5134129;27;19977;-63
2023/05/19 09:55:43;;;;;;;;;;;23.10;76.00;;;;;;5135282;27;19924;-63
2023/05/19 09:58:08;;;;;;;;;;;22.60;76.70;;;;;;5134402;27;19970;-63
2023/05/19 10:00:34;;;;;;;;;;;22.10;77.40;;;;;;5135154;27;19927;-63
2023/05/19 10:03:02;;;;;;;;;;;21.90;77.30;;;;;;5134125;27;19924;-62
2023/05/19 10:05:28;;;;;;;;;;;21.80;77.80;;;;;;5133928;27;19974;-63
2023/05/19 10:07:54;;;;;;;;;;;22.00;78.00;;;;;;5133673;27;19970;-65
2023/05/19 10:10:21;;;;;;;;;;;22.00;78.40;;;;;;5134751;27;19928;-64
2023/05/19 10:12:47;;;;;;;;;;;21.90;78.30;;;;;;5116871;27;19955;-64
2023/05/19 10:15:14;;;;;;;;;;;21.70;80.30;;;;;;5134847;27;19923;-63
2023/05/19 10:17:40;;;;;;;;;;;21.70;78.90;;;;;;5133542;27;19928;-64
2023/05/19 10:20:07;;;;;;;;;;;;;;;;;;5134864;27;20010;-63
2023/05/19 10:22:33;;;;;;;;;;;;;;;;;;5133923;27;19930;-63
2023/05/19 10:24:59;;;;;;;;;;;;;;;;;;5133728;27;20014;-63
2023/05/19 10:27:25;;;;;;;;;;;;;;;;;;5133674;27;19927;-64
2023/05/19 10:29:51;;;;;;;;;;;;;;;;;;5133990;27;19923;-63
2023/05/19 10:32:17;;;;;;;;;;;;;;;;;;5133153;27;20002;-63
2023/05/19 10:34:44;;;;;;;;;;;;;;;;;;5134525;27;19929;-65
2023/05/19 10:37:10;;;;;;;;;;;;;;;;;;5133791;27;19923;-69
2023/05/19 10:39:36;;;;;;;;;;;;;;;;;;5133474;27;19923;-63
2023/05/19 10:42:02;;;;;;;;;;;;;;;;;;5133158;27;19930;-63
2023/05/19 10:44:28;;;;;;;;;;;;;;;;;;5134014;27;20011;-63
2023/05/19 10:46:54;;;;;;;;;;;;;;;;;;5133042;27;20276;-63
2023/05/19 10:49:21;;;;;;;;;;;;;;;;;;5133871;27;20034;-63
2023/05/19 10:51:47;;;;;;;;;;;;;;;;;;5133276;27;19923;-63
2023/05/19 10:54:15;;;;;;;;;;;;;;;;;;5149702;27;19931;-68
2023/05/19 10:56:41;;;;;;;;;;;;;;;;;;5133286;27;19945;-62
2023/05/19 10:59:07;;;;;;;;;;;;;;;;;;5133416;27;19923;-64
2023/05/19 11:01:33;;;;;;;;;;;;;;;;;;5131478;27;20003;-63
2023/05/19 11:03:59;;;;;;;;;;;;;;;;;;5131702;27;19923;-63
2023/05/19 11:06:26;;;;;;;;;;;;;;;;;;5133565;27;19927;-64
2023/05/19 11:08:52;;;;;;;;;;;;;;;;;;5133391;27;20018;-61
2023/05/19 11:11:17;;;;;;;;;;;21.40;80.60;;;;;;5133494;27;19924;-63
2023/05/19 11:13:47;;;;;;;;;;;21.00;79.60;;;;;;5133784;27;20015;-62
2023/05/19 11:16:13;;;;;;;;;;;;;;;;;;5133522;27;19923;-62
2023/05/19 11:18:39;;;;;;;;;;;20.70;80.80;;;;;;5133228;27;19930;-62
2023/05/19 11:21:04;;;;;;;;;;;20.50;80.40;;;;;;5134006;27;20001;-62
2023/05/19 11:23:36;;;;;;;;;;;20.40;82.10;;;;;;5132279;27;20357;-63
2023/05/19 11:26:02;;;;;;;;;;;20.40;83.90;;;;;;5133152;27;19945;-63
2023/05/19 11:28:28;;;;;;;;;;;20.60;83.00;;;;;;5132803;27;19923;-62
2023/05/19 11:30:56;;;;;;;;;;;20.70;81.90;;;;;;5132015;27;19996;-63
2023/05/19 11:33:25;;;;;;;;;;;20.70;79.90;;;;;;5132123;27;19930;-63
2023/05/19 11:35:52;;;;;;;;;;;20.60;79.20;;;;;;5130551;27;19978;-64
2023/05/19 11:38:18;;;;;;;;;;;20.60;79.60;;;;;;5131943;27;20380;-65
2023/05/19 11:40:46;;;;;;;;;;;20.70;79.90;;;;;;5133080;27;19924;-62
2023/05/19 11:43:11;;;;;;;;;;;20.70;79.80;;;;;;5133260;27;20010;-62
2023/05/19 11:45:37;;;;;;;;;;;20.60;80.10;;;;;;5131459;27;20242;-62
2023/05/19 11:48:03;;;;;;;;;;;20.60;79.80;;;;;;5131808;27;19923;-62
2023/05/19 11:50:30;;;;;;;;;;;20.50;79.80;;;;;;5131454;27;19932;-64
2023/05/19 11:52:56;;;;;;;;;;;20.40;79.60;;;;;;5132131;27;19931;-68
2023/05/19 11:55:22;;;;;;;;;;;20.30;79.90;;;;;;5131075;27;19948;-66
2023/05/19 11:57:53;;;;;;;;;;;20.40;80.30;;;;;;5132307;27;19928;-63
2023/05/19 12:00:21;;;;;;;;;;;20.40;80.60;;;;;;5132804;27;19923;-68
2023/05/19 12:02:46;;;;;;;;;;;20.40;81.00;;;;;;5132904;27;19931;-63
2023/05/19 12:05:20;;;;;;;;;;;20.50;79.60;;;;;;5130802;28;19923;-69
2023/05/19 12:07:46;;;;;;;;;;;20.50;79.60;;;;;;5124630;28;19931;-67
2023/05/19 12:10:11;;;;;;;;;;;20.40;79.60;;;;;;5129408;27;20000;-64
2023/05/19 12:12:37;;;;;;;;;;;20.50;81.20;;;;;;5131734;28;20036;-63
2023/05/19 12:15:03;;;;;;;;;;;20.60;80.20;;;;;;5133285;28;19924;-63
2023/05/19 12:17:31;;;;;;;;;;;20.50;79.40;;;;;;5148815;27;19924;-62
2023/05/19 12:19:56;;;;;;;;;;;20.40;80.50;;;;;;5133102;27;19932;-62
2023/05/19 12:22:22;;;;;;;;;;;20.40;80.40;;;;;;5131629;28;19927;-63
2023/05/19 12:24:48;;;;;;;;;;;20.40;81.20;;;;;;5132779;28;19975;-63
2023/05/19 12:27:21;;;;;;;;;;;20.50;80.30;;;;;;5132920;27;19978;-63
2023/05/19 12:29:54;;;;;;;;;;;20.40;80.60;;;;;;5137143;27;20010;-63
2023/05/19 12:32:24;;;;;;;;;;;20.40;81.00;;;;;;5136932;27;19924;-63
2023/05/19 12:34:50;;;;;;;;;;;20.60;81.80;;;;;;5137147;27;20018;-64
2023/05/19 12:37:15;;;;;;;;;;;20.70;81.50;;;;;;5136696;27;19978;-63
2023/05/19 12:39:41;;;;;;;;;;;20.70;81.30;;;;;;5136619;27;19930;-63
2023/05/19 12:42:08;;;;;;;;;;;20.70;81.20;;;;;;5135994;27;20322;-63
2023/05/19 12:44:46;;;;;;;;;;;20.60;81.20;;;;;;5136340;27;19931;-63
2023/05/19 12:47:15;;;;;;;;;;;20.30;81.70;;;;;;5135656;27;20013;-64
2023/05/19 12:50:19;;;;;;;;;;;20.40;82.40;;;;;;5136240;27;19931;-63
2023/05/19 12:52:46;;;;;;;;;;;20.50;81.90;;;;;;5092963;28;20057;-63
2023/05/19 12:55:12;;;;;;;;;;;20.50;82.60;;;;;;5042853;28;19931;-64
2023/05/19 12:57:43;;;;;;;;;;;20.60;81.70;;;;;;5102520;27;20026;-62
2023/05/19 13:00:19;;;;;;;;;;;20.50;81.90;;;;;;5135703;27;19972;-64
2023/05/19 13:02:58;;;;;;;;;;;20.50;81.80;;;;;;5135693;27;20426;-63
2023/05/19 13:05:23;;;;;;;;;;;20.50;82.50;;;;;;5136315;27;19924;-64
2023/05/19 13:07:56;;;;;;;;;;;20.40;82.10;;;;;;5117839;27;19924;-63
2023/05/19 13:10:22;;;;;;;;;;;20.40;81.90;;;;;;5136249;27;19930;-63
2023/05/19 13:12:47;;;;;;;;;;;20.30;82.50;;;;;;5134573;27;19919;-63
2023/05/19 13:15:13;;;;;;;;;;;20.30;82.30;;;;;;5135353;27;19981;-63
2023/05/19 13:17:39;;;;;;;;;;;20.30;82.30;;;;;;5135880;27;19930;-62
2023/05/19 13:20:05;;;;;;;;;;;20.30;82.80;;;;;;5136472;27;19928;-62
2023/05/19 13:22:30;;;;;;;;;;;20.40;82.80;;;;;;5134612;27;20382;-69
2023/05/19 13:24:58;;;;;;;;;;;20.40;82.90;;;;;;5136079;27;19992;-64
2023/05/19 13:27:24;;;;;;;;;;;20.50;82.90;;;;;;5135977;27;19924;-63
2023/05/19 13:29:49;;;;;;;;;;;20.50;84.70;;;;;;5133876;27;20158;-63
2023/05/19 13:32:15;;;;;;;;;;;20.50;85.10;;;;;;5135897;27;19923;-63
2023/05/19 13:34:41;;;;;;;;;;;20.50;84.70;;;;;;5135755;27;19924;-62
2023/05/19 13:37:10;;;;;;;;;;;20.50;85.50;;;;;;5135633;27;19928;-62
2023/05/19 13:39:36;;;;;;;;;;;20.50;85.70;;;;;;5132796;27;20022;-63
2023/05/19 13:42:01;;;;;;;;;;;20.20;89.50;;;;;;5135639;27;19930;-63
2023/05/19 13:44:27;;;;;;;;;;;20.00;89.60;;;;;;5134394;27;19923;-63
2023/05/19 13:46:53;;;;;;;;;;;20.00;90.10;;;;;;5135259;27;19919;-63
2023/05/19 13:49:18;;;;;;;;;;;19.90;90.70;;;;;;5117463;27;19924;-62
2023/05/19 13:51:44;;;;;;;;;;;19.90;90.70;;;;;;5135414;27;19939;-63
2023/05/19 13:54:10;;;;;;;;;;;20.00;90.40;;;;;;5135469;27;19939;-63
2023/05/19 13:56:35;;;;;;;;;;;20.00;90.80;;;;;;5135104;27;20300;-63
2023/05/19 13:59:02;;;;;;;;;;;20.00;91.20;;;;;;5135360;27;19930;-62
2023/05/19 14:01:28;;;;;;;;;;;20.00;92.00;;;;;;5135506;27;19924;-63
2023/05/19 14:03:54;;;;;;;;;;;20.00;91.20;;;;;;5133827;27;20073;-62
2023/05/19 14:06:19;;;;;;;;;;;19.90;91.30;;;;;;5134232;27;19976;-63
2023/05/19 14:08:45;;;;;;;;;;;19.80;91.60;;;;;;5134812;27;19969;-63
2023/05/19 14:11:20;;;;;;;;;;;19.80;91.70;;;;;;5135248;27;20330;-63
2023/05/19 14:13:49;;;;;;;;;;;19.70;91.90;;;;;;5116444;27;19974;-64
2023/05/19 14:16:15;;;;;;;;;;;19.70;91.80;;;;;;5135101;27;19934;-65
2023/05/19 14:18:40;;;;;;;;;;;19.60;92.20;;;;;;5133477;27;20377;-63
2023/05/19 14:21:07;;;;;;;;;;;19.70;92.80;;;;;;5135273;27;19930;-63
2023/05/19 14:23:33;;;;;;;;;;;;;;;;;;5134671;27;19971;-63
2023/05/19 14:25:58;;;;;;;;;;;;;;;;;;5134515;27;19926;-63
2023/05/19 14:28:25;;;;;;;;;;;;;;;;;;5134596;27;19984;-63
2023/05/19 14:30:51;;;;;;;;;;;;;;;;;;5134471;27;19978;-63
2023/05/19 14:33:18;;;;;;;;;;;;;;;;;;5134651;27;19923;-63
2023/05/19 14:35:44;;;;;;;;;;;;;;;;;;5134310;27;19976;-62
2023/05/19 14:38:10;;;;;;;;;;;;;;;;;;5134604;27;20018;-63